sensor_id;sensor_type;location;lat;lon;timestamp;pressure;altitude;pressure_sealevel;temperature;humidity
76866;BME280;66647;52.124;5.416;2023-04-06T00:02:16;101957.91;;;3.23;71.80
76866;BME280;66647;52.124;5.416;2023-04-06T00:04:43;101956.03;;;3.23;71.81
76866;BME280;66647;52.124;5.416;2023-04-06T00:07:10;101945.69;;;3.20;72.16
76866;BME280;66647;52.124;5.416;2023-04-06T00:09:37;101941.31;;;3.19;71.54
76866;BME280;66647;52.124;5.416;2023-04-06T00:12:03;101942.63;;;3.17;72.09
76866;BME280;66647;52.124;5.416;2023-04-06T00:14:30;101939.84;;;3.12;71.86
76866;BME280;66647;52.124;5.416;2023-04-06T00:16:56;101941.09;;;3.04;71.88
76866;BME280;66647;52.124;5.416;2023-04-06T00:19:23;101946.44;;;2.99;71.94
76866;BME280;66647;52.124;5.416;2023-04-06T00:21:49;101937.16;;;2.95;72.27
76866;BME280;66647;52.124;5.416;2023-04-06T00:24:16;101948.25;;;2.93;72.98
76866;BME280;66647;52.124;5.416;2023-04-06T00:26:42;101939.81;;;2.90;72.24
76866;BME280;66647;52.124;5.416;2023-04-06T00:29:09;101936.53;;;2.88;72.50
76866;BME280;66647;52.124;5.416;2023-04-06T00:31:36;101938.09;;;2.84;72.54
76866;BME280;66647;52.124;5.416;2023-04-06T00:34:03;101933.50;;;2.84;72.52
76866;BME280;66647;52.124;5.416;2023-04-06T00:36:29;101925.28;;;2.79;72.56
76866;BME280;66647;52.124;5.416;2023-04-06T00:38:56;101931.44;;;2.75;73.31
76866;BME280;66647;52.124;5.416;2023-04-06T00:41:23;101928.16;;;2.73;72.66
76866;BME280;66647;52.124;5.416;2023-04-06T00:43:50;101919.38;;;2.65;73.06
76866;BME280;66647;52.124;5.416;2023-04-06T00:46:16;101917.16;;;2.62;73.20
76866;BME280;66647;52.124;5.416;2023-04-06T00:48:43;101914.13;;;2.59;73.41
76866;BME280;66647;52.124;5.416;2023-04-06T00:51:10;101907.56;;;2.55;73.79
76866;BME280;66647;52.124;5.416;2023-04-06T00:53:36;101908.06;;;2.52;73.87
76866;BME280;66647;52.124;5.416;2023-04-06T00:56:03;101897.72;;;2.49;73.40
76866;BME280;66647;52.124;5.416;2023-04-06T00:58:40;101902.31;;;2.48;73.59
76866;BME280;66647;52.124;5.416;2023-04-06T01:01:08;101900.69;;;2.47;74.14
76866;BME280;66647;52.124;5.416;2023-04-06T01:03:35;101899.84;;;2.47;74.22
76866;BME280;66647;52.124;5.416;2023-04-06T01:06:02;101890.34;;;2.44;74.29
76866;BME280;66647;52.124;5.416;2023-04-06T01:08:36;101894.09;;;2.43;73.80
76866;BME280;66647;52.124;5.416;2023-04-06T01:11:28;101887.06;;;2.42;74.09
76866;BME280;66647;52.124;5.416;2023-04-06T01:13:57;101884.59;;;2.41;74.81
76866;BME280;66647;52.124;5.416;2023-04-06T01:16:27;101885.16;;;2.43;74.88
76866;BME280;66647;52.124;5.416;2023-04-06T01:19:10;101883.28;;;2.43;74.30
76866;BME280;66647;52.124;5.416;2023-04-06T01:21:44;101884.34;;;2.42;74.76
76866;BME280;66647;52.124;5.416;2023-04-06T01:24:25;101878.94;;;2.42;75.10
76866;BME280;66647;52.124;5.416;2023-04-06T01:27:27;101873.75;;;2.41;74.17
76866;BME280;66647;52.124;5.416;2023-04-06T01:30:17;101872.94;;;2.40;75.20
76866;BME280;66647;52.124;5.416;2023-04-06T01:32:53;101867.03;;;2.43;75.03
76866;BME280;66647;52.124;5.416;2023-04-06T01:35:31;101864.81;;;2.40;75.17
76866;BME280;66647;52.124;5.416;2023-04-06T01:38:09;101865.66;;;2.41;75.32
76866;BME280;66647;52.124;5.416;2023-04-06T01:40:36;101858.34;;;2.41;75.44
76866;BME280;66647;52.124;5.416;2023-04-06T01:43:03;101862.69;;;2.42;75.23
76866;BME280;66647;52.124;5.416;2023-04-06T01:45:36;101854.34;;;2.44;75.35
76866;BME280;66647;52.124;5.416;2023-04-06T01:48:12;101852.44;;;2.44;75.35
76866;BME280;66647;52.124;5.416;2023-04-06T01:50:39;101850.56;;;2.45;76.10
76866;BME280;66647;52.124;5.416;2023-04-06T01:53:07;101847.34;;;2.48;75.58
76866;BME280;66647;52.124;5.416;2023-04-06T01:55:35;101833.59;;;2.49;75.69
76866;BME280;66647;52.124;5.416;2023-04-06T01:58:16;101836.28;;;2.49;75.48
76866;BME280;66647;52.124;5.416;2023-04-06T02:00:43;101833.00;;;2.47;76.22
76866;BME280;66647;52.124;5.416;2023-04-06T02:03:10;101833.00;;;2.47;75.89
76866;BME280;66647;52.124;5.416;2023-04-06T02:05:40;101831.94;;;2.48;75.97
76866;BME280;66647;52.124;5.416;2023-04-06T02:08:27;101831.44;;;2.51;76.02
76866;BME280;66647;52.124;5.416;2023-04-06T02:10:53;101827.91;;;2.51;76.04
76866;BME280;66647;52.124;5.416;2023-04-06T02:13:28;101820.63;;;2.51;76.67
76866;BME280;66647;52.124;5.416;2023-04-06T02:15:55;101816.84;;;2.52;76.20
76866;BME280;66647;52.124;5.416;2023-04-06T02:18:21;101816.34;;;2.55;76.42
76866;BME280;66647;52.124;5.416;2023-04-06T02:20:48;101813.97;;;2.59;76.89
76866;BME280;66647;52.124;5.416;2023-04-06T02:23:16;101809.91;;;2.61;76.75
76866;BME280;66647;52.124;5.416;2023-04-06T02:25:43;101806.97;;;2.63;76.80
76866;BME280;66647;52.124;5.416;2023-04-06T02:28:10;101804.81;;;2.65;76.80
76866;BME280;66647;52.124;5.416;2023-04-06T02:30:36;101804.00;;;2.64;77.07
76866;BME280;66647;52.124;5.416;2023-04-06T02:33:03;101805.66;;;2.65;77.34
76866;BME280;66647;52.124;5.416;2023-04-06T02:35:38;101807.53;;;2.65;77.41
76866;BME280;66647;52.124;5.416;2023-04-06T02:38:06;101806.47;;;2.66;77.22
76866;BME280;66647;52.124;5.416;2023-04-06T02:40:33;101809.75;;;2.68;77.18
76866;BME280;66647;52.124;5.416;2023-04-06T02:43:08;101802.44;;;2.68;76.87
76866;BME280;66647;52.124;5.416;2023-04-06T02:45:35;101801.38;;;2.69;76.91
76866;BME280;66647;52.124;5.416;2023-04-06T02:48:03;101791.38;;;2.70;77.13
76866;BME280;66647;52.124;5.416;2023-04-06T02:50:30;101787.84;;;2.69;77.44
76866;BME280;66647;52.124;5.416;2023-04-06T02:53:01;101785.69;;;2.72;77.48
76866;BME280;66647;52.124;5.416;2023-04-06T02:55:27;101779.47;;;2.71;77.38
76866;BME280;66647;52.124;5.416;2023-04-06T02:57:54;101784.63;;;2.73;76.86
76866;BME280;66647;52.124;5.416;2023-04-06T03:00:26;101780.84;;;2.74;77.04
76866;BME280;66647;52.124;5.416;2023-04-06T03:02:52;101782.50;;;2.75;76.96
76866;BME280;66647;52.124;5.416;2023-04-06T03:05:19;101770.03;;;2.74;76.75
76866;BME280;66647;52.124;5.416;2023-04-06T03:07:46;101771.09;;;2.73;77.30
76866;BME280;66647;52.124;5.416;2023-04-06T03:10:21;101764.84;;;2.72;76.95
76866;BME280;66647;52.124;5.416;2023-04-06T03:12:48;101764.34;;;2.75;76.94
76866;BME280;66647;52.124;5.416;2023-04-06T03:15:18;101764.09;;;2.77;77.33
76866;BME280;66647;52.124;5.416;2023-04-06T03:17:49;101770.34;;;2.77;76.46
76866;BME280;66647;52.124;5.416;2023-04-06T03:20:30;101769.53;;;2.77;77.57
76866;BME280;66647;52.124;5.416;2023-04-06T03:22:56;101763.28;;;2.76;77.11
76866;BME280;66647;52.124;5.416;2023-04-06T03:25:27;101763.03;;;2.78;77.41
76866;BME280;66647;52.124;5.416;2023-04-06T03:27:58;101758.44;;;2.78;77.39
76866;BME280;66647;52.124;5.416;2023-04-06T03:30:25;101757.63;;;2.78;76.38
76866;BME280;66647;52.124;5.416;2023-04-06T03:32:52;101745.72;;;2.79;76.41
76866;BME280;66647;52.124;5.416;2023-04-06T03:35:21;101758.19;;;2.80;75.73
76866;BME280;66647;52.124;5.416;2023-04-06T03:37:49;101753.59;;;2.80;76.26
76866;BME280;66647;52.124;5.416;2023-04-06T03:40:16;101744.41;;;2.81;75.58
76866;BME280;66647;52.124;5.416;2023-04-06T03:42:43;101751.47;;;2.82;74.36
76866;BME280;66647;52.124;5.416;2023-04-06T03:45:13;101749.31;;;2.84;74.19
76866;BME280;66647;52.124;5.416;2023-04-06T03:47:45;101748.50;;;2.84;74.05
76866;BME280;66647;52.124;5.416;2023-04-06T03:50:13;101740.38;;;2.84;74.17
76866;BME280;66647;52.124;5.416;2023-04-06T03:52:40;101745.78;;;2.84;74.25
76866;BME280;66647;52.124;5.416;2023-04-06T03:55:07;101745.53;;;2.85;74.14
76866;BME280;66647;52.124;5.416;2023-04-06T03:57:35;101742.56;;;2.87;74.90
76866;BME280;66647;52.124;5.416;2023-04-06T04:00:02;101742.56;;;2.87;74.07
76866;BME280;66647;52.124;5.416;2023-04-06T04:02:38;101737.97;;;2.87;73.88
76866;BME280;66647;52.124;5.416;2023-04-06T04:05:04;101737.16;;;2.87;74.58
76866;BME280;66647;52.124;5.416;2023-04-06T04:07:31;101737.16;;;2.87;73.84
76866;BME280;66647;52.124;5.416;2023-04-06T04:09:59;101730.91;;;2.86;74.35
76866;BME280;66647;52.124;5.416;2023-04-06T04:12:26;101737.16;;;2.87;73.15
76866;BME280;66647;52.124;5.416;2023-04-06T04:14:52;101738.78;;;2.88;72.52
76866;BME280;66647;52.124;5.416;2023-04-06T04:17:19;101732.31;;;2.89;73.28
76866;BME280;66647;52.124;5.416;2023-04-06T04:19:45;101732.56;;;2.87;73.62
76866;BME280;66647;52.124;5.416;2023-04-06T04:22:13;101730.09;;;2.86;73.37
76866;BME280;66647;52.124;5.416;2023-04-06T04:24:41;101737.66;;;2.84;73.83
76866;BME280;66647;52.124;5.416;2023-04-06T04:27:08;101744.16;;;2.83;73.85
76866;BME280;66647;52.124;5.416;2023-04-06T04:29:36;101730.28;;;2.79;73.57
76866;BME280;66647;52.124;5.416;2023-04-06T04:32:07;101738.09;;;2.76;73.16
76866;BME280;66647;52.124;5.416;2023-04-06T04:34:34;101731.59;;;2.77;72.90
76866;BME280;66647;52.124;5.416;2023-04-06T04:37:03;101733.50;;;2.76;72.65
76866;BME280;66647;52.124;5.416;2023-04-06T04:40:04;101729.16;;;2.75;72.40
76866;BME280;66647;52.124;5.416;2023-04-06T04:42:40;101739.97;;;2.75;72.44
76866;BME280;66647;52.124;5.416;2023-04-06T04:45:11;101731.03;;;2.75;73.35
76866;BME280;66647;52.124;5.416;2023-04-06T04:47:38;101726.94;;;2.72;73.35
76866;BME280;66647;52.124;5.416;2023-04-06T04:50:06;101733.69;;;2.69;72.93
76866;BME280;66647;52.124;5.416;2023-04-06T04:52:38;101729.34;;;2.68;73.42
76866;BME280;66647;52.124;5.416;2023-04-06T04:55:13;101731.47;;;2.66;73.07
76866;BME280;66647;52.124;5.416;2023-04-06T04:57:42;101729.84;;;2.65;73.78
76866;BME280;66647;52.124;5.416;2023-04-06T05:00:09;101733.09;;;2.67;73.55
76866;BME280;66647;52.124;5.416;2023-04-06T05:02:39;101719.88;;;2.71;73.05
76866;BME280;66647;52.124;5.416;2023-04-06T05:05:25;101725.38;;;2.76;72.67
76866;BME280;66647;52.124;5.416;2023-04-06T05:07:52;101733.00;;;2.79;72.29
76866;BME280;66647;52.124;5.416;2023-04-06T05:10:36;101722.72;;;2.81;72.43
76866;BME280;66647;52.124;5.416;2023-04-06T05:13:06;101716.81;;;2.84;71.44
76866;BME280;66647;52.124;5.416;2023-04-06T05:15:33;101717.94;;;2.88;71.39
76866;BME280;66647;52.124;5.416;2023-04-06T05:18:19;101717.97;;;2.93;72.33
76866;BME280;66647;52.124;5.416;2023-04-06T05:20:46;101720.44;;;2.95;71.32
76866;BME280;66647;52.124;5.416;2023-04-06T05:23:13;101722.13;;;3.01;71.16
76866;BME280;66647;52.124;5.416;2023-04-06T05:25:40;101718.34;;;3.02;71.60
76866;BME280;66647;52.124;5.416;2023-04-06T05:28:15;101713.81;;;3.08;70.51
76866;BME280;66647;52.124;5.416;2023-04-06T05:30:44;101716.03;;;3.11;70.59
76866;BME280;66647;52.124;5.416;2023-04-06T05:33:11;101712.56;;;3.15;70.62
76866;BME280;66647;52.124;5.416;2023-04-06T05:35:58;101715.31;;;3.20;70.98
76866;BME280;66647;52.124;5.416;2023-04-06T05:38:30;101710.50;;;3.27;70.52
76866;BME280;66647;52.124;5.416;2023-04-06T05:41:11;101711.13;;;3.34;70.41
76866;BME280;66647;52.124;5.416;2023-04-06T05:43:40;101710.59;;;3.37;70.93
76866;BME280;66647;52.124;5.416;2023-04-06T05:46:07;101709.00;;;3.42;69.93
76866;BME280;66647;52.124;5.416;2023-04-06T05:48:34;101705.28;;;3.48;69.67
76866;BME280;66647;52.124;5.416;2023-04-06T05:51:02;101697.19;;;3.53;70.15
76866;BME280;66647;52.124;5.416;2023-04-06T05:53:41;101709.69;;;3.59;70.34
76866;BME280;66647;52.124;5.416;2023-04-06T05:56:08;101709.75;;;3.64;70.08
76866;BME280;66647;52.124;5.416;2023-04-06T05:58:55;101700.59;;;3.70;70.10
76866;BME280;66647;52.124;5.416;2023-04-06T06:01:27;101705.53;;;3.78;69.79
76866;BME280;66647;52.124;5.416;2023-04-06T06:03:55;101701.19;;;4.14;69.64
76866;BME280;66647;52.124;5.416;2023-04-06T06:06:28;101702.59;;;4.27;68.75
76866;BME280;66647;52.124;5.416;2023-04-06T06:09:25;101700.41;;;4.19;68.37
76866;BME280;66647;52.124;5.416;2023-04-06T06:12:07;101705.53;;;4.15;69.29
76866;BME280;66647;52.124;5.416;2023-04-06T06:15:01;101708.00;;;4.17;69.40
76866;BME280;66647;52.124;5.416;2023-04-06T06:17:29;101705.31;;;4.22;69.59
76866;BME280;66647;52.124;5.416;2023-04-06T06:19:56;101705.31;;;4.22;68.87
76866;BME280;66647;52.124;5.416;2023-04-06T06:22:25;101700.69;;;4.22;68.77
76866;BME280;66647;52.124;5.416;2023-04-06T06:24:51;101706.91;;;4.23;68.81
76866;BME280;66647;52.124;5.416;2023-04-06T06:27:19;101702.31;;;4.23;67.89
76866;BME280;66647;52.124;5.416;2023-04-06T06:29:51;101699.34;;;4.25;68.55
76866;BME280;66647;52.124;5.416;2023-04-06T06:32:17;101704.25;;;4.28;68.25
76866;BME280;66647;52.124;5.416;2023-04-06T06:34:48;101703.72;;;4.31;68.75
76866;BME280;66647;52.124;5.416;2023-04-06T06:37:17;101701.84;;;4.36;68.95
76866;BME280;66647;52.124;5.416;2023-04-06T06:39:44;101705.41;;;4.42;68.75
76866;BME280;66647;52.124;5.416;2023-04-06T06:42:11;101707.91;;;4.49;68.38
76866;BME280;66647;52.124;5.416;2023-04-06T06:45:17;101700.59;;;4.59;68.29
76866;BME280;66647;52.124;5.416;2023-04-06T06:48:07;101700.69;;;4.75;68.27
76866;BME280;66647;52.124;5.416;2023-04-06T06:50:34;101707.78;;;4.91;67.91
76866;BME280;66647;52.124;5.416;2023-04-06T06:53:01;101699.44;;;5.07;67.90
76866;BME280;66647;52.124;5.416;2023-04-06T06:55:27;101699.47;;;5.28;68.11
76866;BME280;66647;52.124;5.416;2023-04-06T06:57:54;101694.59;;;5.45;67.25
76866;BME280;66647;52.124;5.416;2023-04-06T07:00:22;101697.59;;;5.64;66.48
76866;BME280;66647;52.124;5.416;2023-04-06T07:02:52;101697.06;;;5.77;65.65
76866;BME280;66647;52.124;5.416;2023-04-06T07:05:19;101696.50;;;5.75;65.22
76866;BME280;66647;52.124;5.416;2023-04-06T07:07:56;101688.34;;;5.75;65.54
76866;BME280;66647;52.124;5.416;2023-04-06T07:10:24;101687.81;;;5.73;64.19
76866;BME280;66647;52.124;5.416;2023-04-06T07:12:51;101692.16;;;5.74;63.29
76866;BME280;66647;52.124;5.416;2023-04-06T07:15:17;101690.25;;;5.74;64.88
76866;BME280;66647;52.124;5.416;2023-04-06T07:17:44;101682.63;;;5.71;64.24
76866;BME280;66647;52.124;5.416;2023-04-06T07:20:13;101676.91;;;5.68;64.02
76866;BME280;66647;52.124;5.416;2023-04-06T07:22:42;101680.47;;;5.68;64.23
76866;BME280;66647;52.124;5.416;2023-04-06T07:25:22;101680.72;;;5.67;63.28
76866;BME280;66647;52.124;5.416;2023-04-06T07:27:51;101680.19;;;5.65;63.19
76866;BME280;66647;52.124;5.416;2023-04-06T07:30:24;101668.75;;;5.63;63.64
76866;BME280;66647;52.124;5.416;2023-04-06T07:32:58;101668.47;;;5.64;63.58
76866;BME280;66647;52.124;5.416;2023-04-06T07:35:28;101675.28;;;5.67;63.38
76866;BME280;66647;52.124;5.416;2023-04-06T07:38:22;101682.63;;;5.66;63.55
76866;BME280;66647;52.124;5.416;2023-04-06T07:40:49;101669.84;;;5.67;63.74
76866;BME280;66647;52.124;5.416;2023-04-06T07:43:16;101678.00;;;5.72;64.02
76866;BME280;66647;52.124;5.416;2023-04-06T07:45:43;101678.56;;;5.74;62.80
76866;BME280;66647;52.124;5.416;2023-04-06T07:48:11;101674.19;;;5.78;63.08
76866;BME280;66647;52.124;5.416;2023-04-06T07:50:38;101673.38;;;5.83;63.22
76866;BME280;66647;52.124;5.416;2023-04-06T07:53:05;101672.53;;;5.87;63.11
76866;BME280;66647;52.124;5.416;2023-04-06T07:55:33;101673.66;;;5.91;63.09
76866;BME280;66647;52.124;5.416;2023-04-06T07:57:59;101675.84;;;5.99;63.16
76866;BME280;66647;52.124;5.416;2023-04-06T08:00:26;101673.91;;;6.05;63.39
76866;BME280;66647;52.124;5.416;2023-04-06T08:02:59;101679.09;;;6.12;63.01
76866;BME280;66647;52.124;5.416;2023-04-06T08:05:26;101681.22;;;6.20;63.03
76866;BME280;66647;52.124;5.416;2023-04-06T08:07:56;101676.84;;;6.24;62.48
76866;BME280;66647;52.124;5.416;2023-04-06T08:10:28;101679.03;;;6.32;63.14
76866;BME280;66647;52.124;5.416;2023-04-06T08:13:21;101677.66;;;6.39;62.77
76866;BME280;66647;52.124;5.416;2023-04-06T08:15:47;101682.28;;;6.44;63.17
76866;BME280;66647;52.124;5.416;2023-04-06T08:18:14;101685.47;;;6.56;63.40
76866;BME280;66647;52.124;5.416;2023-04-06T08:20:43;101678.09;;;6.67;62.80
76866;BME280;66647;52.124;5.416;2023-04-06T08:23:16;101670.97;;;6.76;62.59
76866;BME280;66647;52.124;5.416;2023-04-06T08:25:45;101673.09;;;6.84;63.37
76866;BME280;66647;52.124;5.416;2023-04-06T08:28:11;101667.59;;;6.94;62.75
76866;BME280;66647;52.124;5.416;2023-04-06T08:30:42;101669.19;;;7.00;62.34
76866;BME280;66647;52.124;5.416;2023-04-06T08:33:09;101665.66;;;7.00;61.83
76866;BME280;66647;52.124;5.416;2023-04-06T08:35:36;101678.72;;;7.03;62.03
76866;BME280;66647;52.124;5.416;2023-04-06T08:38:03;101666.41;;;7.11;61.27
76866;BME280;66647;52.124;5.416;2023-04-06T08:40:39;101669.41;;;7.14;61.50
76866;BME280;66647;52.124;5.416;2023-04-06T08:43:13;101661.97;;;7.20;61.95
76866;BME280;66647;52.124;5.416;2023-04-06T08:45:41;101667.66;;;7.28;61.83
76866;BME280;66647;52.124;5.416;2023-04-06T08:48:08;101663.78;;;7.34;61.51
76866;BME280;66647;52.124;5.416;2023-04-06T08:50:35;101667.06;;;7.36;60.52
76866;BME280;66647;52.124;5.416;2023-04-06T08:53:02;101662.66;;;7.40;61.97
76866;BME280;66647;52.124;5.416;2023-04-06T08:55:29;101660.66;;;7.51;61.84
76866;BME280;66647;52.124;5.416;2023-04-06T08:57:56;101663.63;;;7.55;61.80
76866;BME280;66647;52.124;5.416;2023-04-06T09:00:23;101665.19;;;7.66;62.16
76866;BME280;66647;52.124;5.416;2023-04-06T09:02:54;101662.94;;;7.73;61.86
76866;BME280;66647;52.124;5.416;2023-04-06T09:05:23;101670.44;;;7.86;61.81
76866;BME280;66647;52.124;5.416;2023-04-06T09:07:51;101676.06;;;8.00;60.22
76866;BME280;66647;52.124;5.416;2023-04-06T09:10:18;101673.56;;;8.03;61.29
76866;BME280;66647;52.124;5.416;2023-04-06T09:12:45;101672.06;;;8.16;61.38
76866;BME280;66647;52.124;5.416;2023-04-06T09:15:32;101674.44;;;8.23;60.60
76866;BME280;66647;52.124;5.416;2023-04-06T09:17:58;101678.75;;;8.29;60.43
76866;BME280;66647;52.124;5.416;2023-04-06T09:20:34;101673.28;;;8.34;60.64
76866;BME280;66647;52.124;5.416;2023-04-06T09:23:01;101677.88;;;8.38;59.38
76866;BME280;66647;52.124;5.416;2023-04-06T09:25:36;101672.03;;;8.45;60.41
76866;BME280;66647;52.124;5.416;2023-04-06T09:28:09;101660.22;;;8.50;59.67
76866;BME280;66647;52.124;5.416;2023-04-06T09:30:47;101670.88;;;8.51;59.87
76866;BME280;66647;52.124;5.416;2023-04-06T09:33:22;101667.28;;;8.56;59.70
76866;BME280;66647;52.124;5.416;2023-04-06T09:35:54;101672.69;;;8.61;59.78
76866;BME280;66647;52.124;5.416;2023-04-06T09:38:22;101668.19;;;8.70;59.68
76866;BME280;66647;52.124;5.416;2023-04-06T09:41:48;101661.34;;;8.72;59.76
76866;BME280;66647;52.124;5.416;2023-04-06T09:44:10;101673.59;;;8.75;60.38
76866;BME280;66647;52.124;5.416;2023-04-06T09:46:46;101676.34;;;8.75;59.95
76866;BME280;66647;52.124;5.416;2023-04-06T09:49:50;101670.50;;;8.82;60.35
76866;BME280;66647;52.124;5.416;2023-04-06T09:52:24;101678.50;;;8.97;60.75
76866;BME280;66647;52.124;5.416;2023-04-06T09:54:55;101669.13;;;9.03;61.52
76866;BME280;66647;52.124;5.416;2023-04-06T09:57:59;101674.13;;;9.15;61.93
76866;BME280;66647;52.124;5.416;2023-04-06T10:00:51;101671.78;;;9.27;61.60
76866;BME280;66647;52.124;5.416;2023-04-06T10:03:45;101670.59;;;9.33;62.14
76866;BME280;66647;52.124;5.416;2023-04-06T10:06:18;101660.16;;;9.35;62.81
76866;BME280;66647;52.124;5.416;2023-04-06T10:08:49;101662.09;;;9.34;63.39
76866;BME280;66647;52.124;5.416;2023-04-06T10:11:23;101668.81;;;9.42;62.94
76866;BME280;66647;52.124;5.416;2023-04-06T10:13:49;101667.91;;;9.47;62.98
76866;BME280;66647;52.124;5.416;2023-04-06T10:16:17;101667.59;;;9.48;63.54
76866;BME280;66647;52.124;5.416;2023-04-06T10:18:47;101674.94;;;9.53;63.00
76866;BME280;66647;52.124;5.416;2023-04-06T10:21:25;101676.56;;;9.54;63.85
76866;BME280;66647;52.124;5.416;2023-04-06T10:24:09;101681.50;;;9.52;63.78
76866;BME280;66647;52.124;5.416;2023-04-06T10:26:39;101677.53;;;9.44;64.60
76866;BME280;66647;52.124;5.416;2023-04-06T10:29:24;101677.09;;;9.37;64.73
76866;BME280;66647;52.124;5.416;2023-04-06T10:31:51;101671.84;;;9.40;65.71
76866;BME280;66647;52.124;5.416;2023-04-06T10:38:35;101669.78;;;9.32;67.18
76866;BME280;66647;52.124;5.416;2023-04-06T10:41:11;101671.94;;;9.35;69.18
76866;BME280;66647;52.124;5.416;2023-04-06T10:43:40;101672.59;;;9.27;69.95
76866;BME280;66647;52.124;5.416;2023-04-06T10:46:08;101663.56;;;9.27;71.03
76866;BME280;66647;52.124;5.416;2023-04-06T10:49:10;101675.41;;;9.22;70.90
76866;BME280;66647;52.124;5.416;2023-04-06T10:51:53;101669.19;;;9.17;72.97
76866;BME280;66647;52.124;5.416;2023-04-06T10:54:22;101670.38;;;9.10;72.67
76866;BME280;66647;52.124;5.416;2023-04-06T10:56:49;101668.75;;;9.09;74.22
76866;BME280;66647;52.124;5.416;2023-04-06T10:59:42;101679.31;;;8.97;73.70
76866;BME280;66647;52.124;5.416;2023-04-06T11:02:19;101669.03;;;8.89;74.12
76866;BME280;66647;52.124;5.416;2023-04-06T11:04:59;101663.69;;;8.79;75.60
76866;BME280;66647;52.124;5.416;2023-04-06T11:07:26;101663.25;;;8.72;75.33
76866;BME280;66647;52.124;5.416;2023-04-06T11:09:53;101657.72;;;8.77;76.24
76866;BME280;66647;52.124;5.416;2023-04-06T11:12:44;101660.94;;;8.79;76.69
76866;BME280;66647;52.124;5.416;2023-04-06T11:15:35;101655.06;;;8.72;77.30
76866;BME280;66647;52.124;5.416;2023-04-06T11:18:20;101659.19;;;8.69;77.30
76866;BME280;66647;52.124;5.416;2023-04-06T11:20:54;101655.19;;;8.62;75.83
76866;BME280;66647;52.124;5.416;2023-04-06T11:23:24;101651.34;;;8.63;77.95
76866;BME280;66647;52.124;5.416;2023-04-06T11:25:52;101653.47;;;8.66;79.13
76866;BME280;66647;52.124;5.416;2023-04-06T11:28:19;101642.03;;;8.64;78.19
76866;BME280;66647;52.124;5.416;2023-04-06T11:30:46;101653.53;;;8.61;78.78
76866;BME280;66647;52.124;5.416;2023-04-06T11:33:20;101645.06;;;8.62;77.97
76866;BME280;66647;52.124;5.416;2023-04-06T11:35:48;101644.19;;;8.67;79.60
76866;BME280;66647;52.124;5.416;2023-04-06T11:38:15;101639.59;;;8.62;79.18
76866;BME280;66647;52.124;5.416;2023-04-06T11:40:41;101634.94;;;8.63;79.29
76866;BME280;66647;52.124;5.416;2023-04-06T11:43:11;101633.59;;;8.60;79.09
76866;BME280;66647;52.124;5.416;2023-04-06T11:45:43;101635.75;;;8.63;78.53
76866;BME280;66647;52.124;5.416;2023-04-06T11:48:19;101632.50;;;8.61;79.61
76866;BME280;66647;52.124;5.416;2023-04-06T11:50:54;101623.88;;;8.73;79.04
76866;BME280;66647;52.124;5.416;2023-04-06T11:53:21;101623.28;;;8.76;79.23
76866;BME280;66647;52.124;5.416;2023-04-06T11:55:47;101625.28;;;8.70;77.70
76866;BME280;66647;52.124;5.416;2023-04-06T11:58:17;101617.94;;;8.66;78.57
76866;BME280;66647;52.124;5.416;2023-04-06T12:00:44;101616.03;;;8.66;78.13
76866;BME280;66647;52.124;5.416;2023-04-06T12:03:13;101619.78;;;8.70;78.86
76866;BME280;66647;52.124;5.416;2023-04-06T12:05:43;101617.06;;;8.70;80.04
76866;BME280;66647;52.124;5.416;2023-04-06T12:08:10;101609.91;;;8.74;79.08
76866;BME280;66647;52.124;5.416;2023-04-06T12:10:36;101621.25;;;8.82;79.65
76866;BME280;66647;52.124;5.416;2023-04-06T12:13:03;101604.13;;;8.76;79.47
76866;BME280;66647;52.124;5.416;2023-04-06T12:15:30;101608.28;;;8.73;80.08
76866;BME280;66647;52.124;5.416;2023-04-06T12:17:58;101604.44;;;8.74;79.79
76866;BME280;66647;52.124;5.416;2023-04-06T12:20:25;101599.31;;;8.68;79.70
76866;BME280;66647;52.124;5.416;2023-04-06T12:22:53;101601.75;;;8.69;79.84
76866;BME280;66647;52.124;5.416;2023-04-06T12:25:20;101594.38;;;8.70;79.94
76866;BME280;66647;52.124;5.416;2023-04-06T12:27:47;101600.72;;;8.65;79.81
76866;BME280;66647;52.124;5.416;2023-04-06T12:30:21;101600.50;;;8.62;79.53
76866;BME280;66647;52.124;5.416;2023-04-06T12:32:50;101596.88;;;8.66;80.81
76866;BME280;66647;52.124;5.416;2023-04-06T12:35:17;101599.63;;;8.66;79.26
76866;BME280;66647;52.124;5.416;2023-04-06T12:37:44;101593.41;;;8.61;81.27
76866;BME280;66647;52.124;5.416;2023-04-06T12:40:14;101594.16;;;8.66;81.68
76866;BME280;66647;52.124;5.416;2023-04-06T12:42:44;101589.56;;;8.62;80.66
76866;BME280;66647;52.124;5.416;2023-04-06T12:45:14;101597.25;;;8.60;80.29
76866;BME280;66647;52.124;5.416;2023-04-06T12:47:42;101590.28;;;8.49;81.23
76866;BME280;66647;52.124;5.416;2023-04-06T12:50:13;101587.25;;;8.50;80.71
76866;BME280;66647;52.124;5.416;2023-04-06T12:52:39;101587.72;;;8.57;81.98
76866;BME280;66647;52.124;5.416;2023-04-06T12:55:06;101585.50;;;8.59;81.11
76866;BME280;66647;52.124;5.416;2023-04-06T12:57:33;101583.06;;;8.58;80.22
76866;BME280;66647;52.124;5.416;2023-04-06T13:00:02;101575.38;;;8.60;80.78
76866;BME280;66647;52.124;5.416;2023-04-06T13:02:34;101570.50;;;8.57;81.39
76866;BME280;66647;52.124;5.416;2023-04-06T13:05:07;101575.44;;;8.55;80.18
76866;BME280;66647;52.124;5.416;2023-04-06T13:07:39;101574.09;;;8.52;81.94
76866;BME280;66647;52.124;5.416;2023-04-06T13:10:06;101576.84;;;8.52;81.22
76866;BME280;66647;52.124;5.416;2023-04-06T13:12:32;101571.44;;;8.47;80.67
76866;BME280;66647;52.124;5.416;2023-04-06T13:14:59;101571.44;;;8.47;81.46
76866;BME280;66647;52.124;5.416;2023-04-06T13:17:27;101567.59;;;8.48;82.11
76866;BME280;66647;52.124;5.416;2023-04-06T13:20:04;101558.44;;;8.39;81.93
76866;BME280;66647;52.124;5.416;2023-04-06T13:22:40;101562.06;;;8.34;81.77
76866;BME280;66647;52.124;5.416;2023-04-06T13:25:07;101563.63;;;8.40;82.60
76866;BME280;66647;52.124;5.416;2023-04-06T13:27:59;101564.44;;;8.41;81.59